Hamilton, Nebraska
Current Conditions -  °F | °C
As of 5:55 PM on Friday 24 Oct 2014 (Local Time) from KHJH Reporting Station
Clear Clear  
Wind Chill: 25°   Ceiling: Unl
Heat Index: 26°   Visibility: 10mi
Dew Point: 10°   Wind: 0mph
Humidity: 39%   Direction: NA
Pressure: 29.93"   Gusts: NA
Location:  40.3936°N, 97.5387°W
Report Text: KHJH 242255Z AUTO 00000KT 10SM CLR 25/10 A2993 RMK AO2 T02490100
Loading
Personal Weather Stations






























Interactive Weather Map
Tropical Storm Tracking
New forecast layout! Learn more

10-Day Weather Forecast

Advertisements
Track Severe Weather on mobile